Time;durP1;ratioP1;P1;durP2;ratioP2;P2;SDS_P1;SDS_P2;PMS_P1;PMS_P2;Temp;Humidity;BMP_temperature;BMP_pressure;BME280_temperature;BME280_humidity;BME280_pressure;Samples;Min_cycle;Max_cycle;Signal;HPM_P1;HPM_P2
2022/10/30 00:00:47;;;;;;;4.95;2.35;;;16.40;96.70;;;;;;4926883;29;20039;-73
2022/10/30 00:03:16;;;;;;;7.18;2.55;;;16.50;96.70;;;;;;4926041;29;20498;-73
2022/10/30 00:05:45;;;;;;;5.43;2.42;;;16.50;96.70;;;;;;4934165;29;20059;-73
2022/10/30 00:08:15;;;;;;;4.88;2.05;;;16.40;96.70;;;;;;4939825;29;20134;-73
2022/10/30 00:10:43;;;;;;;4.22;2.28;;;16.40;96.70;;;;;;4943891;28;20071;-73
2022/10/30 00:13:12;;;;;;;5.20;2.30;;;16.40;96.70;;;;;;4928227;29;20048;-74
2022/10/30 00:15:48;;;;;;;6.22;2.13;;;16.30;96.70;;;;;;4908919;29;20122;-74
2022/10/30 00:18:16;;;;;;;5.10;2.20;;;16.20;96.70;;;;;;4927248;29;20561;-73
2022/10/30 00:20:44;;;;;;;3.95;2.28;;;16.30;96.70;;;;;;4928844;29;20043;-74
2022/10/30 00:23:12;;;;;;;6.43;2.28;;;16.30;96.70;;;;;;4927169;29;20059;-74
2022/10/30 00:25:40;;;;;;;3.83;2.03;;;16.30;96.70;;;;;;4928355;29;20138;-74
2022/10/30 00:28:08;;;;;;;4.80;2.40;;;16.20;96.70;;;;;;4930564;29;20052;-74
2022/10/30 00:30:36;;;;;;;6.20;2.45;;;16.20;96.70;;;;;;4942102;29;20051;-74
2022/10/30 00:33:11;;;;;;;8.23;2.88;;;16.10;96.70;;;;;;4946737;29;20091;-74
2022/10/30 00:35:47;;;;;;;5.15;2.60;;;16.00;96.70;;;;;;4932199;29;20463;-73
2022/10/30 00:38:20;;;;;;;6.00;2.88;;;16.00;96.70;;;;;;4928269;29;20039;-74
2022/10/30 00:40:49;;;;;;;3.70;2.50;;;16.00;96.70;;;;;;4950604;28;20120;-74
2022/10/30 00:43:33;;;;;;;7.28;2.40;;;15.80;96.70;;;;;;4927881;29;20142;-73
2022/10/30 00:46:06;;;;;;;5.47;2.70;;;15.80;96.70;;;;;;4923642;29;20445;-73
2022/10/30 00:48:36;;;;;;;6.38;2.83;;;15.80;96.70;;;;;;4929797;29;20044;-73
2022/10/30 00:51:09;;;;;;;7.68;2.88;;;15.80;96.70;;;;;;4930650;29;20040;-74
2022/10/30 00:53:37;;;;;;;7.00;3.17;;;15.80;96.70;;;;;;4929829;29;20130;-73
2022/10/30 00:56:07;;;;;;;8.65;3.10;;;15.80;96.70;;;;;;4923642;29;20513;-74
2022/10/30 00:58:40;;;;;;;6.30;2.80;;;15.80;96.70;;;;;;4933712;29;20050;-74
2022/10/30 01:01:13;;;;;;;7.07;3.10;;;15.60;96.70;;;;;;4938813;29;20054;-74
2022/10/30 01:03:43;;;;;;;7.10;2.58;;;15.70;96.70;;;;;;4937760;29;20882;-74
2022/10/30 01:06:14;;;;;;;9.20;3.08;;;15.70;96.70;;;;;;4934084;29;20054;-73
2022/10/30 01:08:44;;;;;;;6.63;2.17;;;15.60;96.70;;;;;;4934808;28;20051;-74
2022/10/30 01:11:12;;;;;;;10.95;3.10;;;15.50;96.70;;;;;;4946222;28;20050;-74
2022/10/30 01:13:44;;;;;;;5.80;2.50;;;15.50;96.70;;;;;;4935761;28;20464;-74
2022/10/30 01:16:43;;;;;;;7.50;3.28;;;15.50;96.70;;;;;;4940723;29;20533;-73
2022/10/30 01:19:24;;;;;;;6.50;2.65;;;15.50;96.70;;;;;;4928764;29;20138;-74
2022/10/30 01:22:06;;;;;;;6.88;2.65;;;15.50;96.70;;;;;;4928893;29;20044;-74
2022/10/30 01:24:48;;;;;;;6.28;2.60;;;15.40;96.70;;;;;;4966162;28;20047;-73
2022/10/30 01:27:33;;;;;;;5.15;2.60;;;15.50;96.70;;;;;;4937883;29;20569;-74
2022/10/30 01:30:15;;;;;;;4.20;2.40;;;15.50;96.70;;;;;;4951483;28;20058;-74
2022/10/30 01:32:58;;;;;;;4.75;2.45;;;15.50;96.70;;;;;;4919170;29;20075;-74
2022/10/30 01:35:36;;;;;;;5.65;2.35;;;15.50;96.70;;;;;;4946090;28;20070;-74
2022/10/30 01:38:09;;;;;;;4.50;2.50;;;15.50;96.70;;;;;;4933860;29;20111;-74
2022/10/30 01:40:37;;;;;;;9.60;3.00;;;15.40;96.70;;;;;;4928416;29;20462;-74
2022/10/30 01:43:05;;;;;;;5.63;2.70;;;15.40;96.70;;;;;;4928389;29;20138;-75
2022/10/30 01:45:59;;;;;;;6.00;2.40;;;15.50;96.70;;;;;;4928821;29;20052;-73
2022/10/30 01:48:59;;;;;;;5.40;2.45;;;15.50;96.70;;;;;;4898324;29;20121;-75
2022/10/30 01:51:41;;;;;;;4.22;2.30;;;15.50;96.70;;;;;;4899650;29;20552;-74
2022/10/30 01:54:20;;;;;;;7.88;2.55;;;15.40;96.70;;;;;;4928359;29;20134;-74
2022/10/30 01:57:01;;;;;;;4.28;2.25;;;15.30;96.70;;;;;;4943475;28;20055;-74
2022/10/30 01:59:34;;;;;;;9.93;2.80;;;15.30;96.70;;;;;;4966391;28;20792;-74
2022/10/30 02:02:03;;;;;;;6.38;2.60;;;15.30;96.70;;;;;;4935250;29;20055;-74
2022/10/30 02:04:32;;;;;;;5.43;2.50;;;15.10;96.70;;;;;;4927692;29;20052;-74
2022/10/30 02:07:01;;;;;;;5.47;2.92;;;15.10;96.70;;;;;;4911993;29;20040;-74
2022/10/30 02:09:34;;;;;;;5.53;2.45;;;15.20;96.70;;;;;;4926842;29;20155;-74
2022/10/30 02:12:03;;;;;;;4.65;2.00;;;15.20;96.70;;;;;;4927213;29;20147;-74
2022/10/30 02:14:36;;;;;;;4.93;2.60;;;15.10;96.70;;;;;;4935068;29;20067;-74
2022/10/30 02:17:08;;;;;;;4.73;2.20;;;15.10;96.70;;;;;;4924608;29;20103;-74
2022/10/30 02:19:36;;;;;;;4.28;1.95;;;15.10;96.70;;;;;;4926230;29;20096;-73
2022/10/30 02:22:06;;;;;;;6.03;2.50;;;15.10;96.70;;;;;;4927057;29;20055;-74
2022/10/30 02:24:34;;;;;;;6.43;2.53;;;15.10;96.70;;;;;;4942881;28;20133;-75
2022/10/30 02:27:02;;;;;;;9.77;2.38;;;15.20;96.70;;;;;;4955541;28;20047;-74
2022/10/30 02:29:31;;;;;;;6.18;2.47;;;15.20;96.70;;;;;;4936078;29;20052;-73
2022/10/30 02:31:59;;;;;;;6.70;2.40;;;15.20;96.70;;;;;;4944614;29;20379;-73
2022/10/30 02:34:47;;;;;;;5.75;2.25;;;15.20;96.70;;;;;;4937248;28;20481;-74
2022/10/30 02:37:16;;;;;;;7.43;2.40;;;15.10;96.70;;;;;;4931543;29;20047;-74
2022/10/30 02:39:44;;;;;;;7.47;2.30;;;15.20;96.70;;;;;;4969880;28;20039;-74
2022/10/30 02:42:12;;;;;;;5.97;2.33;;;15.10;96.70;;;;;;4911643;29;20081;-73
2022/10/30 02:44:39;;;;;;;5.75;2.50;;;15.00;96.70;;;;;;4922934;29;20040;-74
2022/10/30 02:47:07;;;;;;;4.10;2.17;;;14.90;96.70;;;;;;4928052;29;20056;-74
2022/10/30 02:49:36;;;;;;;3.13;1.73;;;14.90;96.70;;;;;;4932277;29;20051;-74
2022/10/30 02:52:06;;;;;;;5.78;1.75;;;14.90;96.70;;;;;;4907795;29;20080;-73
2022/10/30 02:54:36;;;;;;;6.03;1.98;;;14.90;96.70;;;;;;4916167;29;20146;-73
2022/10/30 02:57:04;;;;;;;3.20;1.55;;;15.00;96.70;;;;;;4908112;29;20051;-74
2022/10/30 02:59:31;;;;;;;4.05;2.00;;;15.00;96.70;;;;;;4900676;29;20059;-73
2022/10/30 03:01:59;;;;;;;3.53;2.15;;;15.00;96.70;;;;;;4908146;29;20124;-74
2022/10/30 03:04:27;;;;;;;5.25;1.88;;;15.10;96.70;;;;;;4917556;29;20059;-74
2022/10/30 03:06:55;;;;;;;3.08;1.70;;;14.90;96.70;;;;;;4921542;29;20067;-73
2022/10/30 03:09:23;;;;;;;4.20;1.80;;;14.90;96.70;;;;;;4913613;29;20052;-74
2022/10/30 03:11:52;;;;;;;3.58;2.10;;;14.90;96.70;;;;;;4907568;29;20210;-73
2022/10/30 03:14:22;;;;;;;5.03;2.05;;;14.90;96.70;;;;;;4926328;29;20052;-73
2022/10/30 03:16:51;;;;;;;3.35;2.13;;;15.00;96.70;;;;;;4907364;29;20080;-73
2022/10/30 03:19:19;;;;;;;3.30;2.08;;;14.90;96.70;;;;;;4929319;29;20154;-73
2022/10/30 03:21:47;;;;;;;5.45;2.15;;;14.90;96.70;;;;;;4906973;29;20055;-74
2022/10/30 03:24:15;;;;;;;4.30;1.98;;;14.90;96.70;;;;;;4921121;29;20054;-74
2022/10/30 03:26:45;;;;;;;4.13;2.38;;;14.90;96.70;;;;;;4893583;29;20446;-74
2022/10/30 03:29:14;;;;;;;5.57;2.30;;;14.90;96.70;;;;;;4920358;29;20831;-74
2022/10/30 03:31:43;;;;;;;6.00;2.30;;;14.90;96.70;;;;;;4922279;29;20583;-74
2022/10/30 03:34:33;;;;;;;5.40;2.20;;;14.90;96.70;;;;;;4917581;29;20079;-74
2022/10/30 03:37:05;;;;;;;3.83;1.88;;;14.80;96.70;;;;;;4922751;29;20056;-74
2022/10/30 03:39:33;;;;;;;4.82;2.28;;;14.60;96.70;;;;;;4902218;29;20524;-74
2022/10/30 03:42:02;;;;;;;5.05;1.90;;;14.70;96.70;;;;;;4923994;29;20466;-74
2022/10/30 03:44:31;;;;;;;6.10;2.45;;;14.60;96.70;;;;;;4933836;29;20150;-73
2022/10/30 03:46:59;;;;;;;3.47;2.08;;;14.50;96.70;;;;;;4930531;29;20051;-74
2022/10/30 03:49:32;;;;;;;8.00;2.42;;;14.50;96.70;;;;;;4926157;29;20852;-73
2022/10/30 03:52:03;;;;;;;4.82;1.85;;;14.40;96.70;;;;;;4925109;29;20048;-73
2022/10/30 03:54:31;;;;;;;3.80;2.03;;;14.40;96.70;;;;;;4925941;29;20078;-73
2022/10/30 03:56:59;;;;;;;4.82;1.98;;;14.50;96.70;;;;;;4929509;29;20046;-73
2022/10/30 03:59:37;;;;;;;4.95;2.17;;;14.50;96.70;;;;;;4926506;29;20513;-74
2022/10/30 04:02:31;;;;;;;3.83;1.73;;;14.50;96.70;;;;;;4905875;29;20051;-74
2022/10/30 04:04:59;;;;;;;3.42;1.95;;;14.60;96.70;;;;;;4943060;29;20043;-73
2022/10/30 04:07:28;;;;;;;5.65;2.40;;;14.50;96.70;;;;;;4929328;29;20047;-73
2022/10/30 04:09:56;;;;;;;3.78;1.88;;;14.50;96.70;;;;;;4942880;28;20063;-74
2022/10/30 04:12:23;;;;;;;5.28;2.53;;;14.40;96.70;;;;;;4937336;29;20125;-74
2022/10/30 04:14:53;;;;;;;4.38;2.42;;;14.40;96.70;;;;;;4933070;29;20609;-74
2022/10/30 04:17:21;;;;;;;4.30;2.08;;;14.30;96.70;;;;;;4946115;28;20047;-74
2022/10/30 04:19:48;;;;;;;6.18;2.28;;;14.40;96.70;;;;;;4937655;29;20566;-74
2022/10/30 04:22:16;;;;;;;4.18;2.20;;;14.40;96.70;;;;;;4913784;29;20043;-74
2022/10/30 04:24:44;;;;;;;3.58;2.00;;;14.30;96.70;;;;;;4933667;29;20141;-74
2022/10/30 04:27:12;;;;;;;5.25;1.90;;;14.30;96.70;;;;;;4932534;29;20043;-74
2022/10/30 04:29:43;;;;;;;3.13;2.00;;;14.30;96.70;;;;;;4924555;29;20039;-74
2022/10/30 04:32:18;;;;;;;3.50;1.95;;;14.30;96.70;;;;;;4926790;29;20063;-74
2022/10/30 04:34:46;;;;;;;4.25;1.92;;;14.20;96.70;;;;;;4921357;29;20374;-74
2022/10/30 04:37:14;;;;;;;3.17;2.05;;;14.20;96.70;;;;;;4925222;29;20754;-74
2022/10/30 04:39:44;;;;;;;4.60;1.98;;;14.20;96.70;;;;;;4936563;28;20075;-74
2022/10/30 04:42:19;;;;;;;3.20;2.33;;;14.10;96.70;;;;;;4937619;29;20044;-74
2022/10/30 04:44:46;;;;;;;3.92;2.15;;;14.00;96.70;;;;;;4927773;29;20043;-73
2022/10/30 04:47:16;;;;;;;4.53;1.80;;;14.00;96.70;;;;;;4941894;29;20357;-74
2022/10/30 04:49:46;;;;;;;4.25;2.00;;;14.00;96.70;;;;;;4932001;29;20454;-73
2022/10/30 04:52:14;;;;;;;2.17;1.50;;;13.90;96.70;;;;;;4940956;29;20055;-74
2022/10/30 04:54:43;;;;;;;3.45;1.63;;;14.00;96.70;;;;;;4927588;29;20494;-73
2022/10/30 04:57:11;;;;;;;7.03;2.00;;;13.90;96.70;;;;;;4925649;29;20402;-73
2022/10/30 04:59:43;;;;;;;2.92;1.50;;;13.90;96.70;;;;;;4924767;29;20071;-73
2022/10/30 05:02:11;;;;;;;3.65;2.10;;;13.90;96.70;;;;;;4927966;29;20056;-75
2022/10/30 05:04:39;;;;;;;4.45;1.98;;;13.90;96.70;;;;;;4933683;28;20556;-75
2022/10/30 05:07:09;;;;;;;4.00;1.75;;;14.00;96.70;;;;;;4940435;29;20051;-75
2022/10/30 05:09:37;;;;;;;6.30;1.65;;;13.90;96.70;;;;;;4935225;28;20043;-75
2022/10/30 05:12:05;;;;;;;3.08;1.65;;;13.80;96.70;;;;;;4939170;29;20051;-74
2022/10/30 05:14:41;;;;;;;3.80;2.22;;;13.90;96.70;;;;;;4928825;29;20148;-74
2022/10/30 05:17:09;;;;;;;3.28;1.50;;;13.90;96.70;;;;;;4928461;29;20055;-75
2022/10/30 05:19:37;;;;;;;5.70;1.80;;;13.90;96.70;;;;;;4933465;29;20424;-75
2022/10/30 05:22:05;;;;;;;3.47;1.60;;;13.90;96.70;;;;;;4938093;29;20052;-75
2022/10/30 05:24:36;;;;;;;3.20;1.45;;;13.90;96.70;;;;;;4927920;29;20054;-74
2022/10/30 05:27:05;;;;;;;5.68;2.95;;;13.90;96.70;;;;;;4920251;29;20079;-75
2022/10/30 05:29:35;;;;;;;3.17;1.90;;;13.90;96.70;;;;;;4909000;29;20525;-75
2022/10/30 05:32:03;;;;;;;4.82;1.40;;;13.90;96.70;;;;;;4943973;28;20499;-75
2022/10/30 05:34:42;;;;;;;5.18;1.70;;;13.90;96.70;;;;;;4927950;29;20047;-75
2022/10/30 05:37:30;;;;;;;7.40;2.35;;;13.80;96.70;;;;;;4911474;29;20044;-75
2022/10/30 05:39:59;;;;;;;5.78;1.85;;;13.80;96.70;;;;;;4933552;28;20055;-75
2022/10/30 05:42:28;;;;;;;3.55;1.85;;;13.80;96.70;;;;;;4942532;28;20087;-74
2022/10/30 05:45:00;;;;;;;3.92;1.75;;;13.80;96.70;;;;;;4915479;28;20413;-75
2022/10/30 05:47:33;;;;;;;3.55;1.85;;;13.80;96.70;;;;;;4949678;28;20078;-74
2022/10/30 05:50:02;;;;;;;4.70;1.90;;;13.80;96.70;;;;;;4944718;28;20051;-75
2022/10/30 05:52:29;;;;;;;5.68;2.08;;;13.70;96.70;;;;;;4940645;28;20038;-72
2022/10/30 05:55:00;;;;;;;2.83;1.83;;;13.70;96.70;;;;;;4932523;29;20074;-72
2022/10/30 05:57:55;;;;;;;5.57;1.88;;;13.70;96.70;;;;;;4923620;28;20067;-73
2022/10/30 06:00:25;;;;;;;3.20;1.50;;;13.70;96.70;;;;;;4930184;29;20690;-73
2022/10/30 06:02:58;;;;;;;3.05;1.67;;;13.70;96.70;;;;;;4934983;29;20045;-73
2022/10/30 06:05:33;;;;;;;3.33;2.03;;;13.70;96.70;;;;;;4943818;28;20493;-73
2022/10/30 06:08:01;;;;;;;3.53;1.70;;;13.70;96.70;;;;;;4962556;28;21213;-73
2022/10/30 06:10:31;;;;;;;5.28;1.67;;;13.70;96.70;;;;;;4943653;29;20046;-74
2022/10/30 06:13:25;;;;;;;3.40;1.48;;;13.60;96.70;;;;;;4952386;28;20058;-74
2022/10/30 06:15:58;;;;;;;3.80;1.73;;;13.60;96.70;;;;;;4929878;28;20579;-75
2022/10/30 06:18:35;;;;;;;2.40;1.52;;;13.70;96.70;;;;;;4938875;28;20062;-72
2022/10/30 06:21:18;;;;;;;9.07;2.35;;;13.70;96.70;;;;;;4932064;28;20051;-73
2022/10/30 06:23:54;;;;;;;2.67;1.50;;;13.70;96.70;;;;;;4930563;28;20079;-73
2022/10/30 06:26:38;;;;;;;4.70;1.80;;;13.80;96.70;;;;;;4929245;29;20048;-73
2022/10/30 06:29:11;;;;;;;4.38;2.17;;;13.80;96.70;;;;;;4937454;28;20141;-74
2022/10/30 06:31:41;;;;;;;3.33;1.98;;;13.80;96.70;;;;;;4955747;28;20102;-73
2022/10/30 06:34:08;;;;;;;3.33;2.05;;;13.80;96.70;;;;;;4940200;28;20046;-73
2022/10/30 06:36:39;;;;;;;4.70;1.92;;;13.80;96.70;;;;;;4927806;28;20043;-72
2022/10/30 06:39:07;;;;;;;4.88;1.92;;;13.80;96.70;;;;;;4933392;29;20155;-73
2022/10/30 06:41:44;;;;;;;3.93;2.03;;;13.90;96.70;;;;;;4936994;28;20074;-73
2022/10/30 06:44:44;;;;;;;8.18;2.10;;;13.90;96.70;;;;;;4894580;29;20810;-73
2022/10/30 06:47:12;;;;;;;4.13;2.03;;;13.90;96.70;;;;;;4887650;29;20535;-73
2022/10/30 06:49:41;;;;;;;5.32;1.90;;;13.90;96.70;;;;;;4870164;29;20045;-73
2022/10/30 06:52:10;;;;;;;3.72;1.95;;;13.80;96.70;;;;;;4887017;29;20086;-73
2022/10/30 06:54:38;;;;;;;6.47;2.38;;;13.80;96.70;;;;;;4886873;29;20052;-73
2022/10/30 06:57:41;;;;;;;4.43;2.00;;;13.90;96.70;;;;;;4908916;29;20052;-74
2022/10/30 07:00:32;;;;;;;3.20;1.95;;;13.90;96.70;;;;;;4873125;29;20530;-73
2022/10/30 07:03:29;;;;;;;3.47;2.05;;;13.90;96.70;;;;;;4879421;29;20048;-73
2022/10/30 07:05:57;;;;;;;4.32;2.13;;;14.00;96.70;;;;;;4873855;29;20056;-73
2022/10/30 07:08:25;;;;;;;5.43;2.28;;;14.10;96.70;;;;;;4885205;29;20081;-74
2022/10/30 07:10:56;;;;;;;5.18;2.33;;;14.10;96.70;;;;;;4887241;29;20048;-75
2022/10/30 07:13:31;;;;;;;7.20;2.53;;;14.10;96.70;;;;;;4885800;29;20146;-73
2022/10/30 07:16:16;;;;;;;3.15;2.05;;;14.20;96.70;;;;;;4887559;29;20055;-74
2022/10/30 07:18:47;;;;;;;6.28;2.55;;;14.30;96.70;;;;;;4888921;29;20130;-73
2022/10/30 07:21:15;;;;;;;7.13;2.50;;;14.30;96.70;;;;;;4945516;28;20059;-73
2022/10/30 07:23:43;;;;;;;4.85;2.50;;;14.40;96.70;;;;;;4960045;28;20070;-73
2022/10/30 07:26:36;;;;;;;4.60;2.20;;;14.40;96.70;;;;;;4925084;29;20141;-73
2022/10/30 07:29:24;;;;;;;5.53;2.47;;;14.50;96.70;;;;;;4938812;28;20055;-73
2022/10/30 07:32:12;;;;;;;7.28;2.10;;;14.50;96.70;;;;;;4942308;28;20047;-73
2022/10/30 07:34:49;;;;;;;5.70;2.70;;;14.40;96.70;;;;;;4914732;29;20039;-73
2022/10/30 07:37:28;;;;;;;4.28;2.10;;;14.40;96.70;;;;;;4906665;28;20051;-73
2022/10/30 07:40:08;;;;;;;6.57;2.40;;;14.50;96.70;;;;;;4929069;29;20513;-73
2022/10/30 07:42:59;;;;;;;5.22;2.63;;;14.60;96.70;;;;;;4946782;28;20393;-73
2022/10/30 07:45:48;;;;;;;5.53;2.58;;;14.70;96.70;;;;;;4956379;28;20535;-73
2022/10/30 07:48:42;;;;;;;5.57;2.38;;;14.90;96.70;;;;;;4925416;28;20150;-74
2022/10/30 07:51:27;;;;;;;5.40;2.58;;;15.00;96.70;;;;;;4928257;29;20402;-74
2022/10/30 07:53:56;;;;;;;5.75;2.30;;;15.10;96.70;;;;;;4946048;28;20051;-73
2022/10/30 07:56:46;;;;;;;4.93;2.60;;;15.10;96.70;;;;;;4928378;29;20047;-73
2022/10/30 07:59:33;;;;;;;8.73;2.85;;;15.30;96.70;;;;;;4929281;29;20073;-73
2022/10/30 08:02:22;;;;;;;7.60;3.53;;;15.30;96.70;;;;;;4931785;28;20668;-73
2022/10/30 08:05:23;;;;;;;5.93;3.88;;;15.30;96.70;;;;;;4900671;28;20747;-75
2022/10/30 08:08:06;;;;;;;3.47;2.22;;;15.50;96.70;;;;;;4918939;28;20134;-72
2022/10/30 08:10:35;;;;;;;5.18;2.70;;;15.50;96.70;;;;;;4928054;29;20707;-73
2022/10/30 08:13:03;;;;;;;7.68;2.85;;;15.60;96.70;;;;;;4925053;29;20908;-74
2022/10/30 08:15:31;;;;;;;4.95;2.53;;;15.70;96.70;;;;;;4928180;29;20861;-73
2022/10/30 08:18:01;;;;;;;7.78;3.17;;;15.80;96.70;;;;;;4928619;28;20102;-74
2022/10/30 08:20:29;;;;;;;8.40;3.58;;;15.80;96.70;;;;;;4911826;28;20086;-74
2022/10/30 08:22:58;;;;;;;9.15;3.85;;;15.90;96.70;;;;;;4930602;28;20517;-73
2022/10/30 08:25:28;;;;;;;6.78;3.50;;;15.90;96.70;;;;;;4928278;29;20046;-73
2022/10/30 08:27:59;;;;;;;7.55;3.75;;;15.90;96.70;;;;;;4929236;29;20101;-74
2022/10/30 08:30:36;;;;;;;7.25;3.85;;;16.00;96.70;;;;;;4927780;28;20047;-71
2022/10/30 08:33:15;;;;;;;9.32;4.32;;;16.10;96.70;;;;;;4913689;28;20742;-73
2022/10/30 08:35:57;;;;;;;8.52;4.50;;;16.10;96.70;;;;;;4934373;29;20047;-72
2022/10/30 08:38:27;;;;;;;10.23;4.55;;;16.30;96.70;;;;;;4913514;28;20526;-72
2022/10/30 08:41:17;;;;;;;9.80;5.25;;;16.40;96.70;;;;;;4911203;29;20052;-72
2022/10/30 08:43:48;;;;;;;9.65;5.47;;;16.40;96.70;;;;;;4913871;29;20091;-72
2022/10/30 08:46:17;;;;;;;8.98;5.07;;;16.50;96.70;;;;;;4934504;29;20518;-73
2022/10/30 08:48:47;;;;;;;8.52;5.13;;;16.60;96.70;;;;;;4940078;29;20670;-74
2022/10/30 08:51:15;;;;;;;8.88;4.95;;;16.60;96.70;;;;;;4940277;29;20100;-73
2022/10/30 08:53:47;;;;;;;8.13;5.18;;;16.70;96.70;;;;;;4943205;29;20048;-73
2022/10/30 08:56:16;;;;;;;9.15;4.80;;;16.80;96.70;;;;;;4936673;29;20051;-73
2022/10/30 08:58:51;;;;;;;8.32;4.90;;;16.90;96.70;;;;;;4921350;29;20079;-73
2022/10/30 09:01:19;;;;;;;10.18;5.35;;;16.90;96.70;;;;;;4910900;29;20146;-73
2022/10/30 09:04:07;;;;;;;9.77;5.07;;;17.00;96.70;;;;;;4928241;29;20063;-73
2022/10/30 09:07:11;;;;;;;7.65;4.03;;;17.10;96.70;;;;;;4870285;29;20053;-73
2022/10/30 09:09:58;;;;;;;7.45;3.88;;;17.30;96.70;;;;;;4869882;29;20778;-73
2022/10/30 09:12:30;;;;;;;10.27;4.70;;;17.40;96.70;;;;;;4854312;29;20139;-73
2022/10/30 09:14:58;;;;;;;24.67;5.60;;;17.50;96.70;;;;;;4875885;29;20137;-73
2022/10/30 09:17:26;;;;;;;8.75;3.95;;;17.70;96.70;;;;;;4888036;29;20048;-73
2022/10/30 09:19:56;;;;;;;7.32;3.70;;;17.80;96.70;;;;;;4858205;29;20597;-73
2022/10/30 09:22:38;;;;;;;6.88;4.00;;;17.90;96.70;;;;;;4867668;29;20041;-73
2022/10/30 09:25:07;;;;;;;7.18;3.75;;;18.10;96.70;;;;;;4855203;29;20053;-73
2022/10/30 09:27:55;;;;;;;6.63;3.53;;;18.20;96.70;;;;;;4869587;29;20057;-73
2022/10/30 09:30:27;;;;;;;5.78;2.90;;;18.30;96.70;;;;;;4869172;29;20056;-72
2022/10/30 09:32:57;;;;;;;7.65;3.53;;;18.40;96.70;;;;;;4878131;29;20473;-73
2022/10/30 09:35:51;;;;;;;10.80;3.15;;;18.50;96.70;;;;;;4857685;29;20048;-72
2022/10/30 09:38:19;;;;;;;7.47;2.90;;;18.60;96.70;;;;;;4865838;29;20049;-72
2022/10/30 09:41:16;;;;;;;4.68;2.80;;;18.70;96.70;;;;;;4887436;29;20075;-72
2022/10/30 09:43:57;;;;;;;6.45;2.75;;;18.70;96.70;;;;;;4908740;29;20059;-71
2022/10/30 09:46:36;;;;;;;7.57;2.63;;;18.90;96.70;;;;;;4927787;29;20114;-73
2022/10/30 09:49:19;;;;;;;6.32;2.67;;;19.10;96.70;;;;;;4936402;29;20421;-72
2022/10/30 09:52:16;;;;;;;9.25;2.92;;;19.20;96.70;;;;;;4939598;29;20052;-73
2022/10/30 09:54:57;;;;;;;4.80;2.38;;;19.30;96.70;;;;;;4935078;29;20569;-73
2022/10/30 09:57:34;;;;;;;7.53;2.50;;;19.30;96.70;;;;;;4916408;29;20048;-74
2022/10/30 10:00:07;;;;;;;5.43;2.92;;;19.40;96.70;;;;;;4930195;29;20052;-73
2022/10/30 10:02:55;;;;;;;8.00;3.13;;;19.40;96.70;;;;;;4930099;29;20671;-72
2022/10/30 10:05:33;;;;;;;5.43;2.65;;;19.50;96.70;;;;;;4924795;29;20078;-72
2022/10/30 10:08:35;;;;;;;7.63;2.60;;;19.70;96.70;;;;;;4928601;29;20055;-72
2022/10/30 10:11:26;;;;;;;5.50;2.63;;;19.80;96.70;;;;;;4925207;29;20649;-72
2022/10/30 10:14:00;;;;;;;5.88;2.70;;;19.90;96.70;;;;;;4932244;29;20502;-73
2022/10/30 10:16:32;;;;;;;4.10;2.13;;;20.00;96.70;;;;;;4927587;29;20493;-72
2022/10/30 10:19:07;;;;;;;6.88;2.47;;;20.10;96.70;;;;;;4958533;28;20097;-72
2022/10/30 10:21:42;;;;;;;4.00;2.55;;;20.10;96.70;;;;;;4935484;29;20462;-73
2022/10/30 10:24:18;;;;;;;3.28;2.15;;;20.20;96.70;;;;;;4926756;29;20064;-72
2022/10/30 10:26:48;;;;;;;;;;;20.20;96.70;;;;;;4926706;29;20138;-72
2022/10/30 10:29:37;;;;;;;4.00;2.50;;;20.30;96.70;;;;;;4934238;29;20353;-72
2022/10/30 10:32:49;;;;;;;5.40;2.03;;;20.40;96.70;;;;;;4938091;29;20131;-72
2022/10/30 10:35:46;;;;;;;4.55;2.50;;;20.50;96.70;;;;;;4907158;29;20079;-72
2022/10/30 10:38:26;;;;;;;5.30;2.50;;;20.70;96.70;;;;;;4921658;29;20055;-72
2022/10/30 10:41:07;;;;;;;7.68;2.15;;;20.80;96.70;;;;;;4941191;28;20051;-72
2022/10/30 10:43:45;;;;;;;3.17;1.80;;;20.80;96.70;;;;;;4962605;28;20732;-72
2022/10/30 10:46:28;;;;;;;4.63;2.58;;;20.90;96.70;;;;;;4929565;29;20058;-72
2022/10/30 10:49:19;;;;;;;4.97;2.22;;;21.00;96.70;;;;;;4963255;28;20050;-72
2022/10/30 10:51:53;;;;;;;5.25;2.20;;;21.10;96.70;;;;;;4935897;28;20149;-72
2022/10/30 10:54:26;;;;;;;5.93;2.55;;;21.30;96.70;;;;;;4931834;29;20047;-72
2022/10/30 10:56:58;;;;;;;5.45;2.42;;;21.30;96.70;;;;;;4930504;28;20859;-73
2022/10/30 10:59:33;;;;;;;5.63;2.13;;;21.30;96.70;;;;;;4914029;28;20058;-72
2022/10/30 11:02:23;;;;;;;9.45;2.63;;;21.40;96.70;;;;;;4935426;28;20118;-72
2022/10/30 11:04:55;;;;;;;7.22;2.15;;;21.50;96.70;;;;;;4929029;28;20452;-72
2022/10/30 11:07:25;;;;;;;5.35;2.30;;;21.60;96.70;;;;;;4946663;28;20059;-72
2022/10/30 11:10:12;;;;;;;4.80;2.15;;;21.60;96.70;;;;;;4946072;28;20055;-72
2022/10/30 11:12:41;;;;;;;;;;;21.70;96.70;;;;;;4938658;28;20109;-72
2022/10/30 11:15:21;;;;;;;6.45;2.65;;;21.80;96.70;;;;;;4916506;29;19926;-72
2022/10/30 11:17:57;;;;;;;5.80;2.20;;;21.90;96.70;;;;;;4938804;28;20058;-72
2022/10/30 11:20:30;;;;;;;6.05;2.97;;;22.00;96.70;;;;;;4929904;29;20047;-72
2022/10/30 11:22:58;;;;;;;5.28;2.50;;;22.00;96.70;;;;;;4945938;28;20055;-72
2022/10/30 11:25:33;;;;;;;4.88;2.10;;;22.20;96.70;;;;;;4950600;28;20050;-72
2022/10/30 11:28:04;;;;;;;6.03;2.80;;;22.30;96.70;;;;;;4940271;28;20086;-72
2022/10/30 11:30:32;;;;;;;3.78;2.38;;;22.30;96.70;;;;;;4929524;29;20146;-72
2022/10/30 11:33:21;;;;;;;3.97;2.38;;;22.40;96.70;;;;;;4930082;29;20955;-72
2022/10/30 11:35:49;;;;;;;4.13;2.35;;;22.70;96.70;;;;;;4945283;28;20516;-72
2022/10/30 11:38:20;;;;;;;4.70;2.47;;;22.80;96.70;;;;;;4953523;28;20043;-72
2022/10/30 11:40:51;;;;;;;4.80;2.55;;;22.90;96.70;;;;;;4914704;29;20059;-72
2022/10/30 11:43:24;;;;;;;4.05;2.88;;;23.10;96.70;;;;;;4928588;29;20573;-72
2022/10/30 11:45:53;;;;;;;9.65;2.58;;;23.20;96.70;;;;;;4928363;28;20085;-72
2022/10/30 11:48:26;;;;;;;3.72;2.22;;;23.20;96.70;;;;;;4945650;28;20043;-72
2022/10/30 11:50:58;;;;;;;4.25;2.63;;;23.30;96.70;;;;;;4946302;28;20501;-72
2022/10/30 11:53:32;;;;;;;5.10;2.53;;;23.40;96.70;;;;;;4933454;28;20448;-72
2022/10/30 11:56:03;;;;;;;5.80;2.60;;;23.40;96.70;;;;;;4946211;28;20047;-72
2022/10/30 11:58:35;;;;;;;4.28;2.70;;;23.60;96.70;;;;;;4952538;28;20035;-72
2022/10/30 12:01:06;;;;;;;8.00;2.60;;;23.70;96.70;;;;;;4928171;29;20059;-72
2022/10/30 12:03:36;;;;;;;4.60;2.55;;;23.80;96.70;;;;;;4944840;28;20604;-72
2022/10/30 12:06:09;;;;;;;5.07;2.60;;;23.90;96.70;;;;;;4928372;28;20130;-72
2022/10/30 12:08:58;;;;;;;5.25;2.83;;;24.00;96.70;;;;;;4947119;28;20078;-72
2022/10/30 12:11:29;;;;;;;4.88;2.60;;;23.90;96.70;;;;;;4941267;29;20044;-72
2022/10/30 12:13:59;;;;;;;5.45;2.17;;;24.10;96.70;;;;;;4925741;28;20267;-72
2022/10/30 12:16:28;;;;;;;4.22;2.50;;;24.30;96.70;;;;;;4956483;28;20230;-72
2022/10/30 12:19:00;;;;;;;7.28;2.50;;;24.30;96.70;;;;;;4949072;28;20145;-72
2022/10/30 12:21:38;;;;;;;3.60;2.60;;;24.40;96.70;;;;;;4936005;29;20047;-73
2022/10/30 12:24:16;;;;;;;2.80;1.98;;;24.60;96.70;;;;;;4920785;28;20113;-72
2022/10/30 12:26:47;;;;;;;4.18;2.45;;;24.70;96.70;;;;;;4953641;28;20051;-73
2022/10/30 12:29:20;;;;;;;7.90;2.50;;;24.70;96.70;;;;;;4942037;28;20109;-72
2022/10/30 12:31:55;;;;;;;5.22;2.30;;;24.70;96.70;;;;;;4945637;28;20047;-72
2022/10/30 12:34:43;;;;;;;4.68;2.50;;;24.90;96.70;;;;;;4959743;28;20489;-72
2022/10/30 12:37:16;;;;;;;5.30;2.70;;;25.10;96.70;;;;;;4944385;28;20391;-72
2022/10/30 12:39:57;;;;;;;4.45;3.00;;;25.20;96.70;;;;;;4927936;29;20083;-72
2022/10/30 12:42:25;;;;;;;7.20;3.40;;;25.20;96.70;;;;;;4944136;28;20083;-73
2022/10/30 12:45:05;;;;;;;5.72;3.22;;;25.30;96.70;;;;;;4956176;28;20498;-72
2022/10/30 12:47:40;;;;;;;5.22;2.95;;;25.40;96.70;;;;;;4935762;28;20109;-72
2022/10/30 12:50:17;;;;;;;6.03;2.47;;;25.50;96.70;;;;;;4936549;29;20051;-73
2022/10/30 12:52:52;;;;;;;5.43;2.25;;;25.60;96.70;;;;;;4944966;28;20039;-72
2022/10/30 12:55:25;;;;;;;5.22;2.10;;;25.70;96.70;;;;;;4947356;28;20145;-72
2022/10/30 12:58:00;;;;;;;3.45;2.22;;;25.70;96.70;;;;;;4945922;28;20072;-73
2022/10/30 13:00:38;;;;;;;4.63;1.98;;;25.70;96.70;;;;;;4954177;28;20083;-72
2022/10/30 13:03:21;;;;;;;5.18;2.30;;;25.80;96.70;;;;;;4962631;28;20043;-72
2022/10/30 13:05:52;;;;;;;4.95;2.50;;;25.80;96.70;;;;;;4945371;28;20137;-72
2022/10/30 13:08:26;;;;;;;3.97;1.90;;;25.80;96.70;;;;;;4927213;29;20047;-72
2022/10/30 13:11:02;;;;;;;3.75;1.90;;;25.80;96.70;;;;;;4937199;28;20072;-72
2022/10/30 13:13:35;;;;;;;3.78;1.92;;;25.60;96.70;;;;;;4913392;28;20051;-73
2022/10/30 13:16:10;;;;;;;4.32;2.15;;;25.60;96.70;;;;;;4946318;28;20122;-72
2022/10/30 13:18:38;;;;;;;5.15;2.58;;;25.60;96.70;;;;;;4945133;28;20130;-72
2022/10/30 13:21:19;;;;;;;3.25;1.92;;;25.70;96.70;;;;;;4935596;28;20134;-72
2022/10/30 13:23:54;;;;;;;6.53;2.42;;;25.70;96.70;;;;;;4955962;28;20514;-72
2022/10/30 13:26:31;;;;;;;3.50;2.22;;;25.70;96.70;;;;;;4945600;28;20051;-72